sensor_id;sensor_type;location;lat;lon;timestamp;temperature;humidity
6662;DHT22;3367;48.714;8.994;2023-04-24T00:00:12;10.30;99.90
6662;DHT22;3367;48.714;8.994;2023-04-24T00:02:40;10.30;99.90
6662;DHT22;3367;48.714;8.994;2023-04-24T00:05:07;10.30;99.90
6662;DHT22;3367;48.714;8.994;2023-04-24T00:07:34;10.30;99.90
6662;DHT22;3367;48.714;8.994;2023-04-24T00:10:03;10.30;97.80
6662;DHT22;3367;48.714;8.994;2023-04-24T00:12:30;10.30;9.50
6662;DHT22;3367;48.714;8.994;2023-04-24T00:14:57;10.30;2.70
6662;DHT22;3367;48.714;8.994;2023-04-24T00:17:24;10.40;1.00
6662;DHT22;3367;48.714;8.994;2023-04-24T00:19:51;10.40;1.00
6662;DHT22;3367;48.714;8.994;2023-04-24T00:22:24;10.40;1.00
6662;DHT22;3367;48.714;8.994;2023-04-24T00:24:50;10.40;1.00
6662;DHT22;3367;48.714;8.994;2023-04-24T00:27:18;10.50;1.00
6662;DHT22;3367;48.714;8.994;2023-04-24T00:29:45;10.50;1.00
6662;DHT22;3367;48.714;8.994;2023-04-24T00:32:12;10.50;1.00
6662;DHT22;3367;48.714;8.994;2023-04-24T00:34:39;10.50;1.00
6662;DHT22;3367;48.714;8.994;2023-04-24T00:37:06;10.50;1.00
6662;DHT22;3367;48.714;8.994;2023-04-24T00:39:33;10.50;1.00
6662;DHT22;3367;48.714;8.994;2023-04-24T00:42:00;10.60;1.00
6662;DHT22;3367;48.714;8.994;2023-04-24T00:44:28;10.60;99.90
6662;DHT22;3367;48.714;8.994;2023-04-24T00:46:55;10.70;99.90
6662;DHT22;3367;48.714;8.994;2023-04-24T00:49:22;10.70;99.90
6662;DHT22;3367;48.714;8.994;2023-04-24T00:51:49;10.70;99.90
6662;DHT22;3367;48.714;8.994;2023-04-24T00:54:16;10.70;99.90
6662;DHT22;3367;48.714;8.994;2023-04-24T00:56:44;10.70;99.90
6662;DHT22;3367;48.714;8.994;2023-04-24T00:59:11;10.70;99.90
6662;DHT22;3367;48.714;8.994;2023-04-24T01:01:40;10.70;99.90
6662;DHT22;3367;48.714;8.994;2023-04-24T01:04:09;10.70;99.90
6662;DHT22;3367;48.714;8.994;2023-04-24T01:06:39;10.70;99.90
6662;DHT22;3367;48.714;8.994;2023-04-24T01:09:06;10.70;99.90
6662;DHT22;3367;48.714;8.994;2023-04-24T01:11:34;10.70;99.90
6662;DHT22;3367;48.714;8.994;2023-04-24T01:14:01;10.70;99.90
6662;DHT22;3367;48.714;8.994;2023-04-24T01:16:28;10.70;99.90
6662;DHT22;3367;48.714;8.994;2023-04-24T01:18:56;10.70;1.00
6662;DHT22;3367;48.714;8.994;2023-04-24T01:21:23;10.70;1.00
6662;DHT22;3367;48.714;8.994;2023-04-24T01:23:55;10.70;1.00
6662;DHT22;3367;48.714;8.994;2023-04-24T01:26:22;10.70;1.00
6662;DHT22;3367;48.714;8.994;2023-04-24T01:28:50;10.60;1.00
6662;DHT22;3367;48.714;8.994;2023-04-24T01:31:17;10.60;1.00
6662;DHT22;3367;48.714;8.994;2023-04-24T01:33:44;10.60;1.00
6662;DHT22;3367;48.714;8.994;2023-04-24T01:36:11;10.60;84.20
6662;DHT22;3367;48.714;8.994;2023-04-24T01:38:38;10.60;35.60
6662;DHT22;3367;48.714;8.994;2023-04-24T01:41:06;10.50;99.90
6662;DHT22;3367;48.714;8.994;2023-04-24T01:43:33;10.50;99.90
6662;DHT22;3367;48.714;8.994;2023-04-24T01:46:00;10.50;99.90
6662;DHT22;3367;48.714;8.994;2023-04-24T01:48:27;10.50;99.90
6662;DHT22;3367;48.714;8.994;2023-04-24T01:50:53;10.40;99.90
6662;DHT22;3367;48.714;8.994;2023-04-24T01:53:20;10.40;99.90
6662;DHT22;3367;48.714;8.994;2023-04-24T01:55:47;10.40;96.80
6662;DHT22;3367;48.714;8.994;2023-04-24T01:58:15;10.40;99.90
6662;DHT22;3367;48.714;8.994;2023-04-24T02:00:42;10.40;99.90
6662;DHT22;3367;48.714;8.994;2023-04-24T02:03:08;10.40;99.90
6662;DHT22;3367;48.714;8.994;2023-04-24T02:05:35;10.40;1.00
6662;DHT22;3367;48.714;8.994;2023-04-24T02:08:02;10.40;1.00
6662;DHT22;3367;48.714;8.994;2023-04-24T02:10:28;10.40;1.00
6662;DHT22;3367;48.714;8.994;2023-04-24T02:12:55;10.30;1.00
6662;DHT22;3367;48.714;8.994;2023-04-24T02:15:23;10.30;1.00
6662;DHT22;3367;48.714;8.994;2023-04-24T02:17:50;10.20;1.00
6662;DHT22;3367;48.714;8.994;2023-04-24T02:20:16;10.30;1.00
6662;DHT22;3367;48.714;8.994;2023-04-24T02:22:43;10.30;1.00
6662;DHT22;3367;48.714;8.994;2023-04-24T02:25:10;10.30;1.00
6662;DHT22;3367;48.714;8.994;2023-04-24T02:27:37;10.30;1.00
6662;DHT22;3367;48.714;8.994;2023-04-24T02:30:05;10.30;1.00
6662;DHT22;3367;48.714;8.994;2023-04-24T02:32:33;10.30;1.00
6662;DHT22;3367;48.714;8.994;2023-04-24T02:35:00;10.30;1.00
6662;DHT22;3367;48.714;8.994;2023-04-24T02:37:27;10.30;1.00
6662;DHT22;3367;48.714;8.994;2023-04-24T02:39:53;10.20;1.00
6662;DHT22;3367;48.714;8.994;2023-04-24T02:42:20;10.20;99.90
6662;DHT22;3367;48.714;8.994;2023-04-24T02:44:46;10.20;99.90
6662;DHT22;3367;48.714;8.994;2023-04-24T02:47:13;10.20;1.00
6662;DHT22;3367;48.714;8.994;2023-04-24T02:49:41;10.20;1.00
6662;DHT22;3367;48.714;8.994;2023-04-24T02:52:08;10.10;1.00
6662;DHT22;3367;48.714;8.994;2023-04-24T02:54:35;10.10;1.00
6662;DHT22;3367;48.714;8.994;2023-04-24T02:57:01;10.10;1.00
6662;DHT22;3367;48.714;8.994;2023-04-24T02:59:28;10.10;1.00
6662;DHT22;3367;48.714;8.994;2023-04-24T03:01:55;10.00;1.00
6662;DHT22;3367;48.714;8.994;2023-04-24T03:04:21;10.00;1.00
6662;DHT22;3367;48.714;8.994;2023-04-24T03:06:49;9.90;1.00
6662;DHT22;3367;48.714;8.994;2023-04-24T03:09:18;10.00;1.00
6662;DHT22;3367;48.714;8.994;2023-04-24T03:11:44;9.90;1.00
6662;DHT22;3367;48.714;8.994;2023-04-24T03:14:11;9.90;1.00
6662;DHT22;3367;48.714;8.994;2023-04-24T03:16:38;9.80;1.00
6662;DHT22;3367;48.714;8.994;2023-04-24T03:19:04;9.80;1.00
6662;DHT22;3367;48.714;8.994;2023-04-24T03:21:31;9.80;1.00
6662;DHT22;3367;48.714;8.994;2023-04-24T03:23:59;9.80;3.70
6662;DHT22;3367;48.714;8.994;2023-04-24T03:26:26;9.80;99.90
6662;DHT22;3367;48.714;8.994;2023-04-24T03:28:53;9.80;99.90
6662;DHT22;3367;48.714;8.994;2023-04-24T03:31:20;9.80;87.40
6662;DHT22;3367;48.714;8.994;2023-04-24T03:33:47;9.80;29.80
6662;DHT22;3367;48.714;8.994;2023-04-24T03:36:14;9.80;50.40
6662;DHT22;3367;48.714;8.994;2023-04-24T03:38:41;9.90;24.40
6662;DHT22;3367;48.714;8.994;2023-04-24T03:41:09;9.80;1.00
6662;DHT22;3367;48.714;8.994;2023-04-24T03:43:35;9.80;1.10
6662;DHT22;3367;48.714;8.994;2023-04-24T03:46:02;9.80;1.00
6662;DHT22;3367;48.714;8.994;2023-04-24T03:48:29;9.70;1.00
6662;DHT22;3367;48.714;8.994;2023-04-24T03:50:56;9.60;1.00
6662;DHT22;3367;48.714;8.994;2023-04-24T03:53:22;9.60;1.00
6662;DHT22;3367;48.714;8.994;2023-04-24T03:55:49;9.60;1.00
6662;DHT22;3367;48.714;8.994;2023-04-24T03:58:17;9.50;1.00
6662;DHT22;3367;48.714;8.994;2023-04-24T04:00:44;9.50;1.00
6662;DHT22;3367;48.714;8.994;2023-04-24T04:03:12;9.50;1.00
6662;DHT22;3367;48.714;8.994;2023-04-24T04:05:39;9.50;43.80
6662;DHT22;3367;48.714;8.994;2023-04-24T04:08:05;9.60;99.90
6662;DHT22;3367;48.714;8.994;2023-04-24T04:10:32;9.60;99.90
6662;DHT22;3367;48.714;8.994;2023-04-24T04:12:59;9.60;99.90
6662;DHT22;3367;48.714;8.994;2023-04-24T04:15:27;9.70;99.90
6662;DHT22;3367;48.714;8.994;2023-04-24T04:17:54;9.70;99.90
6662;DHT22;3367;48.714;8.994;2023-04-24T04:20:21;9.70;99.90
6662;DHT22;3367;48.714;8.994;2023-04-24T04:22:47;9.70;99.90
6662;DHT22;3367;48.714;8.994;2023-04-24T04:25:14;9.50;41.80
6662;DHT22;3367;48.714;8.994;2023-04-24T04:27:41;9.20;1.00
6662;DHT22;3367;48.714;8.994;2023-04-24T04:30:08;9.10;1.00
6662;DHT22;3367;48.714;8.994;2023-04-24T04:32:36;9.00;1.00
6662;DHT22;3367;48.714;8.994;2023-04-24T04:35:04;8.80;99.90
6662;DHT22;3367;48.714;8.994;2023-04-24T04:37:31;8.80;99.90
6662;DHT22;3367;48.714;8.994;2023-04-24T04:39:58;8.80;99.90
6662;DHT22;3367;48.714;8.994;2023-04-24T04:42:25;8.80;1.00
6662;DHT22;3367;48.714;8.994;2023-04-24T04:44:52;8.70;1.00
6662;DHT22;3367;48.714;8.994;2023-04-24T04:47:21;8.70;1.00
6662;DHT22;3367;48.714;8.994;2023-04-24T04:49:49;8.70;1.00
6662;DHT22;3367;48.714;8.994;2023-04-24T04:52:17;8.60;1.00
6662;DHT22;3367;48.714;8.994;2023-04-24T04:54:43;8.70;1.00
6662;DHT22;3367;48.714;8.994;2023-04-24T04:57:11;8.70;1.00
6662;DHT22;3367;48.714;8.994;2023-04-24T04:59:38;8.60;1.00
6662;DHT22;3367;48.714;8.994;2023-04-24T05:02:06;8.70;1.00
6662;DHT22;3367;48.714;8.994;2023-04-24T05:04:33;8.70;1.00
6662;DHT22;3367;48.714;8.994;2023-04-24T05:07:01;8.70;18.70
6662;DHT22;3367;48.714;8.994;2023-04-24T05:09:28;8.80;1.00
6662;DHT22;3367;48.714;8.994;2023-04-24T05:11:55;8.70;1.00
6662;DHT22;3367;48.714;8.994;2023-04-24T05:14:22;8.70;1.00
6662;DHT22;3367;48.714;8.994;2023-04-24T05:16:49;8.70;1.00
6662;DHT22;3367;48.714;8.994;2023-04-24T05:19:16;8.80;1.00
6662;DHT22;3367;48.714;8.994;2023-04-24T05:21:43;8.80;1.00
6662;DHT22;3367;48.714;8.994;2023-04-24T05:24:11;8.80;1.00
6662;DHT22;3367;48.714;8.994;2023-04-24T05:26:37;8.90;1.00
6662;DHT22;3367;48.714;8.994;2023-04-24T05:29:04;8.90;19.00
6662;DHT22;3367;48.714;8.994;2023-04-24T05:31:31;8.80;1.00
6662;DHT22;3367;48.714;8.994;2023-04-24T05:33:57;8.80;1.00
6662;DHT22;3367;48.714;8.994;2023-04-24T05:36:24;8.90;1.00
6662;DHT22;3367;48.714;8.994;2023-04-24T05:38:52;8.90;1.00
6662;DHT22;3367;48.714;8.994;2023-04-24T05:41:20;8.90;1.00
6662;DHT22;3367;48.714;8.994;2023-04-24T05:43:47;8.90;99.90
6662;DHT22;3367;48.714;8.994;2023-04-24T05:46:14;9.00;99.90
6662;DHT22;3367;48.714;8.994;2023-04-24T05:48:41;9.00;99.90
6662;DHT22;3367;48.714;8.994;2023-04-24T05:51:09;9.00;79.60
6662;DHT22;3367;48.714;8.994;2023-04-24T05:53:35;9.00;99.90
6662;DHT22;3367;48.714;8.994;2023-04-24T05:56:02;9.00;99.90
6662;DHT22;3367;48.714;8.994;2023-04-24T05:58:30;9.00;99.90
6662;DHT22;3367;48.714;8.994;2023-04-24T06:00:57;9.00;99.90
6662;DHT22;3367;48.714;8.994;2023-04-24T06:03:26;9.00;99.90
6662;DHT22;3367;48.714;8.994;2023-04-24T06:05:53;8.90;99.90
6662;DHT22;3367;48.714;8.994;2023-04-24T06:08:19;9.00;99.90
6662;DHT22;3367;48.714;8.994;2023-04-24T06:10:46;9.40;1.00
6662;DHT22;3367;48.714;8.994;2023-04-24T06:13:13;10.10;99.90
6662;DHT22;3367;48.714;8.994;2023-04-24T06:15:41;10.60;1.00
6662;DHT22;3367;48.714;8.994;2023-04-24T06:18:08;11.30;99.90
6662;DHT22;3367;48.714;8.994;2023-04-24T06:20:36;11.70;1.00
6662;DHT22;3367;48.714;8.994;2023-04-24T06:23:02;11.90;1.00
6662;DHT22;3367;48.714;8.994;2023-04-24T06:25:29;12.30;1.00
6662;DHT22;3367;48.714;8.994;2023-04-24T06:27:56;12.80;1.00
6662;DHT22;3367;48.714;8.994;2023-04-24T06:30:23;13.00;1.00
6662;DHT22;3367;48.714;8.994;2023-04-24T06:32:51;13.10;99.90
6662;DHT22;3367;48.714;8.994;2023-04-24T06:35:18;12.80;88.10
6662;DHT22;3367;48.714;8.994;2023-04-24T06:37:45;12.60;99.90
6662;DHT22;3367;48.714;8.994;2023-04-24T06:40:12;12.80;99.00
6662;DHT22;3367;48.714;8.994;2023-04-24T06:42:39;13.00;84.90
6662;DHT22;3367;48.714;8.994;2023-04-24T06:45:06;13.50;97.50
6662;DHT22;3367;48.714;8.994;2023-04-24T06:47:33;13.80;5.90
6662;DHT22;3367;48.714;8.994;2023-04-24T06:50:01;14.20;1.00
6662;DHT22;3367;48.714;8.994;2023-04-24T06:52:28;14.90;1.00
6662;DHT22;3367;48.714;8.994;2023-04-24T06:55:00;15.00;1.00
6662;DHT22;3367;48.714;8.994;2023-04-24T06:57:27;14.40;1.00
6662;DHT22;3367;48.714;8.994;2023-04-24T06:59:54;13.70;1.00
6662;DHT22;3367;48.714;8.994;2023-04-24T07:02:21;12.90;1.00
6662;DHT22;3367;48.714;8.994;2023-04-24T07:04:47;12.70;25.90
6662;DHT22;3367;48.714;8.994;2023-04-24T07:07:15;12.30;18.70
6662;DHT22;3367;48.714;8.994;2023-04-24T07:09:42;11.80;15.90
6662;DHT22;3367;48.714;8.994;2023-04-24T07:12:11;11.50;99.90
6662;DHT22;3367;48.714;8.994;2023-04-24T07:14:38;11.20;99.90
6662;DHT22;3367;48.714;8.994;2023-04-24T07:17:05;11.00;99.90
6662;DHT22;3367;48.714;8.994;2023-04-24T07:19:33;11.00;99.90
6662;DHT22;3367;48.714;8.994;2023-04-24T07:22:00;11.00;99.90
6662;DHT22;3367;48.714;8.994;2023-04-24T07:24:29;11.10;99.90
6662;DHT22;3367;48.714;8.994;2023-04-24T07:26:57;11.30;99.90
6662;DHT22;3367;48.714;8.994;2023-04-24T07:29:24;11.90;99.90
6662;DHT22;3367;48.714;8.994;2023-04-24T07:31:51;12.60;71.40
6662;DHT22;3367;48.714;8.994;2023-04-24T07:34:19;13.10;2.10
6662;DHT22;3367;48.714;8.994;2023-04-24T07:36:46;13.40;1.00
6662;DHT22;3367;48.714;8.994;2023-04-24T07:39:12;13.70;1.00
6662;DHT22;3367;48.714;8.994;2023-04-24T07:41:40;13.60;1.00
6662;DHT22;3367;48.714;8.994;2023-04-24T07:44:07;13.50;1.00
6662;DHT22;3367;48.714;8.994;2023-04-24T07:46:34;13.20;1.00
6662;DHT22;3367;48.714;8.994;2023-04-24T07:49:01;13.00;1.00
6662;DHT22;3367;48.714;8.994;2023-04-24T07:51:28;12.90;1.00
6662;DHT22;3367;48.714;8.994;2023-04-24T07:53:55;12.90;1.00
6662;DHT22;3367;48.714;8.994;2023-04-24T07:56:22;12.80;1.00
6662;DHT22;3367;48.714;8.994;2023-04-24T07:58:50;12.60;1.00
6662;DHT22;3367;48.714;8.994;2023-04-24T08:01:17;12.30;1.00
6662;DHT22;3367;48.714;8.994;2023-04-24T08:03:43;12.00;1.00
6662;DHT22;3367;48.714;8.994;2023-04-24T08:06:10;11.90;1.00
6662;DHT22;3367;48.714;8.994;2023-04-24T08:08:37;11.80;1.00
6662;DHT22;3367;48.714;8.994;2023-04-24T08:11:03;11.80;1.00
6662;DHT22;3367;48.714;8.994;2023-04-24T08:13:30;11.70;1.00
6662;DHT22;3367;48.714;8.994;2023-04-24T08:15:58;11.70;1.00
6662;DHT22;3367;48.714;8.994;2023-04-24T08:18:25;11.70;1.00
6662;DHT22;3367;48.714;8.994;2023-04-24T08:20:52;11.80;1.00
6662;DHT22;3367;48.714;8.994;2023-04-24T08:23:18;12.00;1.00
6662;DHT22;3367;48.714;8.994;2023-04-24T08:25:45;12.10;1.00
6662;DHT22;3367;48.714;8.994;2023-04-24T08:28:12;12.40;1.00
6662;DHT22;3367;48.714;8.994;2023-04-24T08:30:45;13.00;1.00
6662;DHT22;3367;48.714;8.994;2023-04-24T08:33:13;13.10;1.00
6662;DHT22;3367;48.714;8.994;2023-04-24T08:35:40;12.90;1.00
6662;DHT22;3367;48.714;8.994;2023-04-24T08:38:07;12.60;1.00
6662;DHT22;3367;48.714;8.994;2023-04-24T08:40:34;12.50;1.00
6662;DHT22;3367;48.714;8.994;2023-04-24T08:43:01;12.50;1.00
6662;DHT22;3367;48.714;8.994;2023-04-24T08:45:28;12.30;1.00
6662;DHT22;3367;48.714;8.994;2023-04-24T08:47:55;12.40;1.00
6662;DHT22;3367;48.714;8.994;2023-04-24T08:50:23;12.20;1.00
6662;DHT22;3367;48.714;8.994;2023-04-24T08:52:50;11.90;1.00
6662;DHT22;3367;48.714;8.994;2023-04-24T08:55:19;11.80;1.00
6662;DHT22;3367;48.714;8.994;2023-04-24T08:57:48;11.60;1.00
6662;DHT22;3367;48.714;8.994;2023-04-24T09:00:17;11.70;1.00
6662;DHT22;3367;48.714;8.994;2023-04-24T09:02:45;11.80;1.00
6662;DHT22;3367;48.714;8.994;2023-04-24T09:05:14;11.80;1.00
6662;DHT22;3367;48.714;8.994;2023-04-24T09:07:45;11.60;1.00
6662;DHT22;3367;48.714;8.994;2023-04-24T09:10:13;11.60;1.00
6662;DHT22;3367;48.714;8.994;2023-04-24T09:12:40;11.50;1.00
6662;DHT22;3367;48.714;8.994;2023-04-24T09:15:08;11.40;1.00
6662;DHT22;3367;48.714;8.994;2023-04-24T09:17:35;11.30;1.00
6662;DHT22;3367;48.714;8.994;2023-04-24T09:20:02;11.40;1.00
6662;DHT22;3367;48.714;8.994;2023-04-24T09:22:30;11.80;1.00
6662;DHT22;3367;48.714;8.994;2023-04-24T09:25:02;12.40;1.00
6662;DHT22;3367;48.714;8.994;2023-04-24T09:27:29;12.40;1.00
6662;DHT22;3367;48.714;8.994;2023-04-24T09:29:58;12.30;1.00
6662;DHT22;3367;48.714;8.994;2023-04-24T09:32:25;12.40;1.00
6662;DHT22;3367;48.714;8.994;2023-04-24T09:35:06;12.50;1.00
6662;DHT22;3367;48.714;8.994;2023-04-24T09:37:35;12.40;1.00
6662;DHT22;3367;48.714;8.994;2023-04-24T09:40:11;12.40;1.00
6662;DHT22;3367;48.714;8.994;2023-04-24T09:42:38;12.40;1.00
6662;DHT22;3367;48.714;8.994;2023-04-24T09:45:09;12.50;1.00
6662;DHT22;3367;48.714;8.994;2023-04-24T09:47:36;12.60;1.00
6662;DHT22;3367;48.714;8.994;2023-04-24T09:50:09;12.90;1.00
6662;DHT22;3367;48.714;8.994;2023-04-24T09:52:40;12.60;1.00
6662;DHT22;3367;48.714;8.994;2023-04-24T09:55:13;12.40;1.00
6662;DHT22;3367;48.714;8.994;2023-04-24T09:57:52;12.40;1.00
6662;DHT22;3367;48.714;8.994;2023-04-24T10:00:23;12.50;1.00
6662;DHT22;3367;48.714;8.994;2023-04-24T10:02:54;12.40;1.00
6662;DHT22;3367;48.714;8.994;2023-04-24T10:05:28;12.30;1.00
6662;DHT22;3367;48.714;8.994;2023-04-24T10:08:01;12.30;1.00
6662;DHT22;3367;48.714;8.994;2023-04-24T10:10:30;12.50;1.00
6662;DHT22;3367;48.714;8.994;2023-04-24T10:12:57;12.50;1.00
6662;DHT22;3367;48.714;8.994;2023-04-24T10:15:24;12.80;1.00
6662;DHT22;3367;48.714;8.994;2023-04-24T10:17:52;13.00;1.00
6662;DHT22;3367;48.714;8.994;2023-04-24T10:20:22;13.10;1.00
6662;DHT22;3367;48.714;8.994;2023-04-24T10:22:50;13.30;1.00
6662;DHT22;3367;48.714;8.994;2023-04-24T10:25:19;13.40;1.00
6662;DHT22;3367;48.714;8.994;2023-04-24T10:27:50;13.30;1.00
6662;DHT22;3367;48.714;8.994;2023-04-24T10:30:18;13.30;1.00
6662;DHT22;3367;48.714;8.994;2023-04-24T10:32:45;13.00;1.00
6662;DHT22;3367;48.714;8.994;2023-04-24T10:35:13;13.00;1.00
6662;DHT22;3367;48.714;8.994;2023-04-24T10:37:43;13.10;1.00
6662;DHT22;3367;48.714;8.994;2023-04-24T10:40:12;12.80;1.00
6662;DHT22;3367;48.714;8.994;2023-04-24T10:42:42;12.70;1.00
6662;DHT22;3367;48.714;8.994;2023-04-24T10:45:17;12.80;1.00
6662;DHT22;3367;48.714;8.994;2023-04-24T10:48:02;12.80;1.00
6662;DHT22;3367;48.714;8.994;2023-04-24T10:50:41;12.90;1.00
6662;DHT22;3367;48.714;8.994;2023-04-24T10:53:12;12.60;1.00
6662;DHT22;3367;48.714;8.994;2023-04-24T10:55:42;12.40;1.00
6662;DHT22;3367;48.714;8.994;2023-04-24T10:58:09;12.30;1.00
6662;DHT22;3367;48.714;8.994;2023-04-24T11:00:38;12.00;1.00
6662;DHT22;3367;48.714;8.994;2023-04-24T11:03:05;11.80;1.00
6662;DHT22;3367;48.714;8.994;2023-04-24T11:05:52;11.70;1.00
6662;DHT22;3367;48.714;8.994;2023-04-24T11:08:26;11.70;1.00
6662;DHT22;3367;48.714;8.994;2023-04-24T11:11:08;11.80;1.00
6662;DHT22;3367;48.714;8.994;2023-04-24T11:14:04;11.90;1.00
6662;DHT22;3367;48.714;8.994;2023-04-24T11:16:44;12.00;1.00
6662;DHT22;3367;48.714;8.994;2023-04-24T11:19:18;12.20;1.00
6662;DHT22;3367;48.714;8.994;2023-04-24T11:21:55;12.50;1.00
6662;DHT22;3367;48.714;8.994;2023-04-24T11:24:24;12.70;1.00
6662;DHT22;3367;48.714;8.994;2023-04-24T11:26:51;12.60;1.00
6662;DHT22;3367;48.714;8.994;2023-04-24T11:29:20;12.50;1.00
6662;DHT22;3367;48.714;8.994;2023-04-24T11:31:48;11.90;1.00
6662;DHT22;3367;48.714;8.994;2023-04-24T11:34:17;11.50;1.00
6662;DHT22;3367;48.714;8.994;2023-04-24T11:36:45;11.50;1.00
6662;DHT22;3367;48.714;8.994;2023-04-24T11:39:12;11.60;1.00
6662;DHT22;3367;48.714;8.994;2023-04-24T11:41:39;11.70;1.00
6662;DHT22;3367;48.714;8.994;2023-04-24T11:44:07;11.70;1.00
6662;DHT22;3367;48.714;8.994;2023-04-24T11:46:35;11.80;1.00
6662;DHT22;3367;48.714;8.994;2023-04-24T11:49:05;12.00;1.00
6662;DHT22;3367;48.714;8.994;2023-04-24T11:51:32;12.20;1.00
6662;DHT22;3367;48.714;8.994;2023-04-24T11:54:00;12.40;1.00
6662;DHT22;3367;48.714;8.994;2023-04-24T11:56:27;12.60;1.00
6662;DHT22;3367;48.714;8.994;2023-04-24T11:58:54;12.50;1.00
6662;DHT22;3367;48.714;8.994;2023-04-24T12:01:21;12.30;1.00
6662;DHT22;3367;48.714;8.994;2023-04-24T12:03:49;12.10;1.00
6662;DHT22;3367;48.714;8.994;2023-04-24T12:06:17;11.90;1.00
6662;DHT22;3367;48.714;8.994;2023-04-24T12:08:48;11.70;1.00
6662;DHT22;3367;48.714;8.994;2023-04-24T12:11:16;11.70;1.00
6662;DHT22;3367;48.714;8.994;2023-04-24T12:13:46;11.70;1.00
6662;DHT22;3367;48.714;8.994;2023-04-24T12:16:13;11.70;1.00
6662;DHT22;3367;48.714;8.994;2023-04-24T12:18:43;11.90;1.00
6662;DHT22;3367;48.714;8.994;2023-04-24T12:21:20;11.70;1.00
6662;DHT22;3367;48.714;8.994;2023-04-24T12:23:48;11.90;1.00
6662;DHT22;3367;48.714;8.994;2023-04-24T12:26:17;12.10;1.00
6662;DHT22;3367;48.714;8.994;2023-04-24T12:28:46;11.90;1.00
6662;DHT22;3367;48.714;8.994;2023-04-24T12:31:13;11.90;1.00
6662;DHT22;3367;48.714;8.994;2023-04-24T12:33:40;11.90;1.00
6662;DHT22;3367;48.714;8.994;2023-04-24T12:36:10;11.70;1.00
6662;DHT22;3367;48.714;8.994;2023-04-24T12:38:39;11.40;1.00
6662;DHT22;3367;48.714;8.994;2023-04-24T12:41:11;11.20;1.00
6662;DHT22;3367;48.714;8.994;2023-04-24T12:43:51;11.10;1.00
6662;DHT22;3367;48.714;8.994;2023-04-24T12:46:17;11.00;1.00
6662;DHT22;3367;48.714;8.994;2023-04-24T12:48:44;10.90;1.00
6662;DHT22;3367;48.714;8.994;2023-04-24T12:51:11;10.90;1.00
6662;DHT22;3367;48.714;8.994;2023-04-24T12:53:41;10.90;1.00
6662;DHT22;3367;48.714;8.994;2023-04-24T12:56:08;10.90;1.00
6662;DHT22;3367;48.714;8.994;2023-04-24T12:58:36;10.90;1.00
6662;DHT22;3367;48.714;8.994;2023-04-24T13:01:02;10.70;1.00
6662;DHT22;3367;48.714;8.994;2023-04-24T13:03:29;10.70;1.00
6662;DHT22;3367;48.714;8.994;2023-04-24T13:05:56;10.70;1.00
6662;DHT22;3367;48.714;8.994;2023-04-24T13:08:23;10.90;1.00
6662;DHT22;3367;48.714;8.994;2023-04-24T13:10:51;11.00;1.00
6662;DHT22;3367;48.714;8.994;2023-04-24T13:13:19;11.20;1.00
6662;DHT22;3367;48.714;8.994;2023-04-24T13:15:47;11.50;1.00
6662;DHT22;3367;48.714;8.994;2023-04-24T13:18:13;11.90;1.00
6662;DHT22;3367;48.714;8.994;2023-04-24T13:20:40;11.80;1.00
6662;DHT22;3367;48.714;8.994;2023-04-24T13:23:08;11.80;1.00
6662;DHT22;3367;48.714;8.994;2023-04-24T13:25:36;11.70;1.00
6662;DHT22;3367;48.714;8.994;2023-04-24T13:28:06;11.40;1.00
6662;DHT22;3367;48.714;8.994;2023-04-24T13:30:32;11.20;1.00
6662;DHT22;3367;48.714;8.994;2023-04-24T13:32:59;11.20;1.00
6662;DHT22;3367;48.714;8.994;2023-04-24T13:35:26;11.10;1.00
6662;DHT22;3367;48.714;8.994;2023-04-24T13:37:57;11.00;1.00
6662;DHT22;3367;48.714;8.994;2023-04-24T13:40:23;10.90;1.00
6662;DHT22;3367;48.714;8.994;2023-04-24T13:42:50;10.70;1.00
6662;DHT22;3367;48.714;8.994;2023-04-24T13:45:18;10.90;1.00
6662;DHT22;3367;48.714;8.994;2023-04-24T13:47:45;11.20;1.00
6662;DHT22;3367;48.714;8.994;2023-04-24T13:50:12;11.50;1.00
6662;DHT22;3367;48.714;8.994;2023-04-24T13:52:39;11.70;1.00
6662;DHT22;3367;48.714;8.994;2023-04-24T13:55:06;11.90;1.00
6662;DHT22;3367;48.714;8.994;2023-04-24T13:57:33;11.90;1.00
6662;DHT22;3367;48.714;8.994;2023-04-24T14:00:00;12.10;1.00
6662;DHT22;3367;48.714;8.994;2023-04-24T14:02:30;12.00;1.00
6662;DHT22;3367;48.714;8.994;2023-04-24T14:04:57;11.90;1.00
6662;DHT22;3367;48.714;8.994;2023-04-24T14:07:24;11.50;1.00
6662;DHT22;3367;48.714;8.994;2023-04-24T14:09:51;11.20;1.00
6662;DHT22;3367;48.714;8.994;2023-04-24T14:12:17;11.00;1.00
6662;DHT22;3367;48.714;8.994;2023-04-24T14:14:46;10.90;10.80
6662;DHT22;3367;48.714;8.994;2023-04-24T14:17:13;10.70;99.90
6662;DHT22;3367;48.714;8.994;2023-04-24T14:19:41;10.50;1.00
6662;DHT22;3367;48.714;8.994;2023-04-24T14:22:08;10.40;1.00
6662;DHT22;3367;48.714;8.994;2023-04-24T14:24:35;10.50;1.00
6662;DHT22;3367;48.714;8.994;2023-04-24T14:27:01;10.50;99.90
6662;DHT22;3367;48.714;8.994;2023-04-24T14:29:28;10.40;99.90
6662;DHT22;3367;48.714;8.994;2023-04-24T14:31:55;10.50;1.00
6662;DHT22;3367;48.714;8.994;2023-04-24T14:34:22;10.60;99.90
6662;DHT22;3367;48.714;8.994;2023-04-24T14:36:50;10.70;99.90
6662;DHT22;3367;48.714;8.994;2023-04-24T14:39:18;10.90;1.00
6662;DHT22;3367;48.714;8.994;2023-04-24T14:41:45;11.00;99.90
6662;DHT22;3367;48.714;8.994;2023-04-24T14:44:12;11.20;99.90
6662;DHT22;3367;48.714;8.994;2023-04-24T14:46:39;11.40;99.90
6662;DHT22;3367;48.714;8.994;2023-04-24T14:49:05;11.60;99.90
6662;DHT22;3367;48.714;8.994;2023-04-24T14:51:35;11.60;99.90
6662;DHT22;3367;48.714;8.994;2023-04-24T14:54:03;11.80;99.90
6662;DHT22;3367;48.714;8.994;2023-04-24T14:56:29;11.80;99.90
6662;DHT22;3367;48.714;8.994;2023-04-24T14:58:57;11.70;99.90
6662;DHT22;3367;48.714;8.994;2023-04-24T15:01:24;11.50;96.00
6662;DHT22;3367;48.714;8.994;2023-04-24T15:03:51;11.50;79.50
6662;DHT22;3367;48.714;8.994;2023-04-24T15:06:18;11.30;43.00
6662;DHT22;3367;48.714;8.994;2023-04-24T15:08:45;11.40;99.90
6662;DHT22;3367;48.714;8.994;2023-04-24T15:11:13;11.30;99.90
6662;DHT22;3367;48.714;8.994;2023-04-24T15:13:40;11.20;97.10
6662;DHT22;3367;48.714;8.994;2023-04-24T15:16:07;11.10;70.00
6662;DHT22;3367;48.714;8.994;2023-04-24T15:18:33;11.20;99.90
6662;DHT22;3367;48.714;8.994;2023-04-24T15:21:00;11.00;38.30
6662;DHT22;3367;48.714;8.994;2023-04-24T15:23:27;10.90;40.90
6662;DHT22;3367;48.714;8.994;2023-04-24T15:25:53;10.80;45.20
6662;DHT22;3367;48.714;8.994;2023-04-24T15:28:21;10.70;48.10
6662;DHT22;3367;48.714;8.994;2023-04-24T15:30:48;10.70;70.00
6662;DHT22;3367;48.714;8.994;2023-04-24T15:33:15;10.70;69.70
6662;DHT22;3367;48.714;8.994;2023-04-24T15:35:42;10.70;98.90
6662;DHT22;3367;48.714;8.994;2023-04-24T15:38:08;10.80;99.90
6662;DHT22;3367;48.714;8.994;2023-04-24T15:40:35;10.90;99.90
6662;DHT22;3367;48.714;8.994;2023-04-24T15:43:02;10.90;71.40
6662;DHT22;3367;48.714;8.994;2023-04-24T15:45:30;10.90;99.90
6662;DHT22;3367;48.714;8.994;2023-04-24T15:47:57;10.90;83.90
6662;DHT22;3367;48.714;8.994;2023-04-24T15:50:25;11.00;85.90
6662;DHT22;3367;48.714;8.994;2023-04-24T15:52:52;11.10;68.90
6662;DHT22;3367;48.714;8.994;2023-04-24T15:55:18;11.30;85.90
6662;DHT22;3367;48.714;8.994;2023-04-24T15:57:45;11.40;26.30
6662;DHT22;3367;48.714;8.994;2023-04-24T16:00:13;11.70;30.30
6662;DHT22;3367;48.714;8.994;2023-04-24T16:02:42;11.90;34.60
6662;DHT22;3367;48.714;8.994;2023-04-24T16:05:09;11.90;1.00
6662;DHT22;3367;48.714;8.994;2023-04-24T16:07:37;11.90;1.00
6662;DHT22;3367;48.714;8.994;2023-04-24T16:10:05;11.90;1.00
6662;DHT22;3367;48.714;8.994;2023-04-24T16:12:31;11.80;1.00
6662;DHT22;3367;48.714;8.994;2023-04-24T16:14:59;11.70;1.00
6662;DHT22;3367;48.714;8.994;2023-04-24T16:17:25;11.70;1.00
6662;DHT22;3367;48.714;8.994;2023-04-24T16:19:53;11.70;1.00